Time;durP1;ratioP1;P1;durP2;ratioP2;P2;SDS_P1;SDS_P2;PMS_P1;PMS_P2;Temp;Humidity;BMP_temperature;BMP_pressure;BME280_temperature;BME280_humidity;BME280_pressure;Samples;Min_cycle;Max_cycle;Signal;HPM_P1;HPM_P2
2022/06/15 00:01:23;0.00;0.00;0.62;0.00;0.00;0.62;4.13;1.60;;;26.50;24.40;;;;;;2258030;61;20437;-62
2022/06/15 00:04:08;0.00;0.00;0.62;0.00;0.00;0.62;3.20;1.90;;;26.50;24.40;;;;;;2254003;61;20342;-62
2022/06/15 00:06:53;0.00;0.00;0.62;0.00;0.00;0.62;2.13;1.30;;;26.50;24.40;;;;;;2254159;61;20374;-62
2022/06/15 00:09:38;0.00;0.00;0.62;0.00;0.00;0.62;2.50;1.60;;;26.50;24.40;;;;;;2255239;61;20428;-60
2022/06/15 00:12:23;0.00;0.00;0.62;0.00;0.00;0.62;3.40;1.80;;;26.50;24.40;;;;;;2258017;61;20361;-60
2022/06/15 00:15:09;0.00;0.00;0.62;0.00;0.00;0.62;2.57;1.80;;;26.50;24.40;;;;;;2255822;61;20417;-59
2022/06/15 00:17:55;0.00;0.00;0.62;0.00;0.00;0.62;3.17;1.77;;;26.50;24.40;;;;;;2253286;61;20890;-61
2022/06/15 00:20:40;0.00;0.00;0.62;0.00;0.00;0.62;2.50;1.60;;;26.50;24.40;;;;;;2255559;61;20408;-60
2022/06/15 00:23:27;0.00;0.00;0.62;0.00;0.00;0.62;2.20;1.70;;;26.50;24.40;;;;;;2256281;61;20891;-60
2022/06/15 00:26:14;0.00;0.00;0.62;0.00;0.00;0.62;3.00;1.70;;;26.40;24.30;;;;;;2256514;61;20473;-60
2022/06/15 00:28:59;0.00;0.00;0.62;0.00;0.00;0.62;2.47;1.83;;;26.50;24.40;;;;;;2255377;61;20378;-59
2022/06/15 00:31:44;0.00;0.00;0.62;0.00;0.00;0.62;3.00;1.67;;;26.50;24.40;;;;;;2256525;61;20397;-58
2022/06/15 00:34:30;0.00;0.00;0.62;0.00;0.00;0.62;2.57;1.80;;;26.40;24.40;;;;;;2256183;61;20421;-60
2022/06/15 00:37:15;0.00;0.00;0.62;0.00;0.00;0.62;2.70;1.63;;;26.50;24.40;;;;;;2255807;61;20420;-59
2022/06/15 00:40:00;0.00;0.00;0.62;0.00;0.00;0.62;3.80;2.07;;;26.40;24.40;;;;;;2256729;61;20883;-56
2022/06/15 00:42:45;0.00;0.00;0.62;0.00;0.00;0.62;3.07;1.30;;;26.40;24.40;;;;;;2252511;61;20890;-58
2022/06/15 00:45:31;0.00;0.00;0.62;0.00;0.00;0.62;4.43;1.70;;;26.40;24.40;;;;;;2256124;61;20358;-59
2022/06/15 00:48:16;0.00;0.00;0.62;0.00;0.00;0.62;4.60;1.90;;;26.30;24.40;;;;;;2256426;61;20438;-57
2022/06/15 00:51:03;0.00;0.00;0.62;0.00;0.00;0.62;3.40;1.70;;;26.40;24.40;;;;;;2252258;61;20938;-56
2022/06/15 00:53:48;0.00;0.00;0.62;0.00;0.00;0.62;2.97;1.90;;;26.30;24.40;;;;;;2256614;61;20416;-56
2022/06/15 00:56:35;0.00;0.00;0.62;0.00;0.00;0.62;2.43;1.70;;;26.40;24.40;;;;;;2256280;61;20930;-55
2022/06/15 00:59:32;0.00;0.00;0.62;0.00;0.00;0.62;4.93;2.20;;;26.30;24.40;;;;;;2255682;61;20406;-55
2022/06/15 01:02:17;0.00;0.00;0.62;0.00;0.00;0.62;4.20;1.63;;;26.30;24.40;;;;;;2253314;61;20413;-55
2022/06/15 01:05:07;0.00;0.00;0.62;0.00;0.00;0.62;3.47;1.73;;;26.30;24.40;;;;;;2255443;61;20362;-59
2022/06/15 01:08:24;0.00;0.00;0.62;0.00;0.00;0.62;3.00;2.13;;;26.30;24.40;;;;;;2256533;61;20902;-57
2022/06/15 01:11:37;0.00;0.00;0.62;0.00;0.00;0.62;3.40;1.93;;;26.30;24.40;;;;;;2253708;61;20424;-59
2022/06/15 01:14:45;0.00;0.00;0.62;0.00;0.00;0.62;2.93;2.00;;;26.30;24.40;;;;;;2257008;61;20997;-62
2022/06/15 01:17:54;0.00;0.00;0.62;0.00;0.00;0.62;4.03;2.13;;;26.30;24.40;;;;;;2256654;61;20357;-57
2022/06/15 01:20:57;0.00;0.00;0.62;0.00;0.00;0.62;3.30;2.07;;;26.30;24.40;;;;;;2252063;61;20386;-59
2022/06/15 01:24:34;0.00;0.00;0.62;0.00;0.00;0.62;4.17;2.00;;;26.30;24.40;;;;;;2256069;61;20493;-60
2022/06/15 01:28:13;0.00;0.00;0.62;0.00;0.00;0.62;2.17;1.47;;;26.20;24.40;;;;;;2255353;61;20432;-59
2022/06/15 01:31:11;0.00;0.00;0.62;0.00;0.00;0.62;2.60;1.60;;;26.20;24.40;;;;;;2253285;61;20473;-58
2022/06/15 01:34:08;0.00;0.00;0.62;0.00;0.00;0.62;3.17;2.00;;;26.20;24.40;;;;;;2252206;61;20788;-60
2022/06/15 01:37:00;0.00;0.00;0.62;0.00;0.00;0.62;2.43;1.80;;;26.20;24.40;;;;;;2255958;61;20862;-59
2022/06/15 01:39:52;0.00;0.00;0.62;0.00;0.00;0.62;1.77;1.40;;;26.20;24.40;;;;;;2256592;61;20385;-59
2022/06/15 01:42:44;0.00;0.00;0.62;0.00;0.00;0.62;3.33;1.80;;;26.20;24.50;;;;;;2251848;61;20893;-55
2022/06/15 01:45:35;0.00;0.00;0.62;0.00;0.00;0.62;3.10;2.10;;;26.20;24.50;;;;;;2253214;61;20820;-59
2022/06/15 01:48:21;0.00;0.00;0.62;0.00;0.00;0.62;2.27;1.57;;;26.20;24.50;;;;;;2252632;61;20365;-57
2022/06/15 01:51:21;0.00;0.00;0.62;0.00;0.00;0.62;2.73;1.73;;;26.10;24.50;;;;;;2252563;61;20474;-60
2022/06/15 01:54:11;0.00;0.00;0.62;0.00;0.00;0.62;2.67;2.00;;;26.10;24.50;;;;;;2253059;61;20902;-58
2022/06/15 01:56:58;0.00;0.00;0.62;0.00;0.00;0.62;2.50;1.60;;;26.10;24.50;;;;;;2252382;61;20803;-56
2022/06/15 01:59:48;0.00;0.00;0.62;0.00;0.00;0.62;2.43;1.50;;;26.20;24.50;;;;;;2253552;61;20380;-59
2022/06/15 02:02:45;0.00;0.00;0.62;0.00;0.00;0.62;2.27;1.50;;;26.10;24.50;;;;;;2254117;61;20467;-57
2022/06/15 02:05:39;0.00;0.00;0.62;0.00;0.00;0.62;3.07;2.10;;;26.10;24.50;;;;;;2256519;61;20405;-59
2022/06/15 02:08:44;0.00;0.00;0.62;0.00;0.00;0.62;2.60;1.57;;;26.10;24.50;;;;;;2257766;61;20397;-58
2022/06/15 02:11:32;0.00;0.00;0.62;0.00;0.00;0.62;4.10;2.00;;;26.10;24.60;;;;;;2253654;61;20365;-58
2022/06/15 02:14:23;0.00;0.00;0.62;0.00;0.00;0.62;1.90;1.40;;;26.10;24.60;;;;;;2254032;61;20393;-56
2022/06/15 02:17:15;0.00;0.00;0.62;0.00;0.00;0.62;2.70;1.83;;;26.10;24.60;;;;;;2254280;61;20384;-60
2022/06/15 02:20:06;0.00;0.00;0.62;0.00;0.00;0.62;2.47;2.00;;;26.00;24.60;;;;;;2256042;61;20844;-59
2022/06/15 02:22:57;0.00;0.00;0.62;0.00;0.00;0.62;2.27;2.07;;;26.10;24.70;;;;;;2254423;61;20894;-55
2022/06/15 02:25:50;0.00;0.00;0.62;0.00;0.00;0.62;3.30;1.87;;;26.10;24.60;;;;;;2253742;61;20366;-58
2022/06/15 02:28:41;0.00;0.00;0.62;0.00;0.00;0.62;2.77;1.83;;;26.00;24.60;;;;;;2253976;61;20397;-57
2022/06/15 02:31:26;0.00;0.00;0.62;0.00;0.00;0.62;2.23;1.40;;;26.00;24.60;;;;;;2254516;61;20436;-58
2022/06/15 02:34:11;0.00;0.00;0.62;0.00;0.00;0.62;4.83;1.70;;;26.00;24.60;;;;;;2252937;61;20384;-59
2022/06/15 02:36:59;0.00;0.00;0.62;0.00;0.00;0.62;3.40;2.20;;;26.00;24.60;;;;;;2254481;61;20436;-59
2022/06/15 02:39:46;0.00;0.00;0.62;0.00;0.00;0.62;2.83;1.63;;;26.00;24.60;;;;;;2254065;61;20381;-57
2022/06/15 02:42:35;0.00;0.00;0.62;0.00;0.00;0.62;3.90;2.27;;;26.00;24.70;;;;;;2253463;61;20382;-57
2022/06/15 02:45:36;0.00;0.00;0.62;0.00;0.00;0.62;4.30;1.93;;;25.90;24.60;;;;;;2254220;61;20370;-54
2022/06/15 02:48:23;0.00;0.00;0.62;0.00;0.00;0.62;3.23;1.87;;;25.90;24.60;;;;;;2253628;61;20369;-58
2022/06/15 02:51:14;0.00;0.00;0.62;0.00;0.00;0.62;3.30;2.03;;;26.00;24.70;;;;;;2254037;61;20770;-57
2022/06/15 02:54:17;0.00;0.00;0.62;0.00;0.00;0.62;2.90;2.13;;;25.90;24.70;;;;;;2254052;61;20392;-57
2022/06/15 02:57:06;0.00;0.00;0.62;0.00;0.00;0.62;3.20;2.13;;;25.90;24.70;;;;;;2253309;61;20504;-58
2022/06/15 02:59:52;0.00;0.00;0.62;0.00;0.00;0.62;2.37;1.80;;;25.90;24.70;;;;;;2254341;61;20393;-58
2022/06/15 03:02:41;0.00;0.00;0.62;0.00;0.00;0.62;3.23;1.90;;;25.90;24.70;;;;;;2253575;61;20422;-58
2022/06/15 03:05:26;0.00;0.00;0.62;0.00;0.00;0.62;2.90;1.60;;;25.90;24.70;;;;;;2253660;61;20954;-59
2022/06/15 03:08:11;0.00;0.00;0.62;0.00;0.00;0.62;4.77;2.20;;;25.90;24.70;;;;;;2254360;61;20787;-58
2022/06/15 03:10:57;0.00;0.00;0.62;0.00;0.00;0.62;3.67;2.23;;;25.90;24.70;;;;;;2250489;61;20385;-55
2022/06/15 03:13:45;0.00;0.00;0.62;0.00;0.00;0.62;2.87;2.20;;;25.80;24.70;;;;;;2253425;61;20431;-60
2022/06/15 03:16:30;0.00;0.00;0.62;0.00;0.00;0.62;2.77;1.70;;;25.80;24.70;;;;;;2253941;61;20366;-58
2022/06/15 03:19:16;0.00;0.00;0.62;0.00;0.00;0.62;2.90;1.90;;;25.80;24.80;;;;;;2252432;61;20401;-60
2022/06/15 03:22:00;0.00;0.00;0.62;0.00;0.00;0.62;2.10;1.67;;;25.80;24.80;;;;;;2253687;61;20373;-60
2022/06/15 03:24:45;0.00;0.00;0.62;0.00;0.00;0.62;4.17;1.87;;;25.80;24.80;;;;;;2254132;61;20358;-57
2022/06/15 03:27:32;0.00;0.00;0.62;0.00;0.00;0.62;3.10;1.73;;;25.80;24.80;;;;;;2252924;61;20454;-58
2022/06/15 03:30:20;0.00;0.00;0.62;0.00;0.00;0.62;3.47;2.10;;;25.80;24.80;;;;;;2253389;61;20409;-57
2022/06/15 03:33:21;0.00;0.00;0.62;0.00;0.00;0.62;2.87;1.60;;;25.80;24.80;;;;;;2252519;61;20481;-57
2022/06/15 03:36:07;0.00;0.00;0.62;0.00;0.00;0.62;2.30;1.70;;;25.80;24.80;;;;;;2253642;61;20409;-58
2022/06/15 03:38:52;0.00;0.00;0.62;0.00;0.00;0.62;3.30;1.80;;;25.80;24.80;;;;;;2253138;61;21018;-58
2022/06/15 03:41:40;0.00;0.00;0.62;0.00;0.00;0.62;2.60;1.80;;;25.70;24.80;;;;;;2250176;61;20385;-60
2022/06/15 03:44:25;0.00;0.00;0.62;0.00;0.00;0.62;3.20;1.93;;;25.70;24.80;;;;;;2256549;61;20851;-57
2022/06/15 03:47:13;0.00;0.00;0.62;0.00;0.00;0.62;4.17;2.23;;;25.70;24.80;;;;;;2253444;61;20469;-56
2022/06/15 03:49:58;0.00;0.00;0.62;0.00;0.00;0.62;2.50;1.87;;;25.70;24.80;;;;;;2253499;61;20433;-58
2022/06/15 03:52:43;0.00;0.00;0.62;0.00;0.00;0.62;3.10;1.60;;;25.70;24.80;;;;;;2255135;61;20342;-56
2022/06/15 03:55:29;0.00;0.00;0.62;0.00;0.00;0.62;2.73;2.07;;;25.70;24.80;;;;;;2253836;61;20393;-60
2022/06/15 03:58:18;0.00;0.00;0.62;0.00;0.00;0.62;2.30;1.90;;;25.70;24.80;;;;;;2253424;61;20358;-56
2022/06/15 04:01:05;0.00;0.00;0.62;0.00;0.00;0.62;3.57;1.70;;;25.70;24.90;;;;;;2253253;61;20428;-56
2022/06/15 04:03:53;0.00;0.00;0.62;0.00;0.00;0.62;3.30;2.07;;;25.70;24.90;;;;;;2253003;61;20354;-59
2022/06/15 04:06:44;0.00;0.00;0.62;0.00;0.00;0.62;2.30;1.93;;;25.70;24.90;;;;;;2253465;61;20779;-57
2022/06/15 04:09:31;0.00;0.00;0.62;0.00;0.00;0.62;3.60;1.90;;;25.60;24.80;;;;;;2252982;61;20389;-56
2022/06/15 04:12:23;0.00;0.00;0.62;0.00;0.00;0.62;3.50;2.00;;;25.70;24.90;;;;;;2252874;61;20416;-59
2022/06/15 04:15:10;0.00;0.00;0.62;0.00;0.00;0.62;3.17;2.17;;;25.60;24.90;;;;;;2253384;61;20304;-59
2022/06/15 04:17:59;0.00;0.00;0.62;0.00;0.00;0.62;2.50;1.93;;;25.60;24.90;;;;;;2252412;61;20366;-58
2022/06/15 04:20:57;0.00;0.00;0.62;0.00;0.00;0.62;3.10;2.10;;;25.60;24.80;;;;;;2253415;61;20420;-57
2022/06/15 04:23:45;0.00;0.00;0.62;0.00;0.00;0.62;2.67;1.97;;;25.60;24.90;;;;;;2252971;61;20365;-59
2022/06/15 04:26:30;0.00;0.00;0.62;0.00;0.00;0.62;4.00;2.43;;;25.60;24.90;;;;;;2255393;61;20466;-55
2022/06/15 04:29:19;0.00;0.00;0.62;0.00;0.00;0.62;4.07;2.40;;;25.60;24.90;;;;;;2253279;61;20909;-56
2022/06/15 04:32:07;0.00;0.00;0.62;0.00;0.00;0.62;2.60;2.23;;;25.50;24.90;;;;;;2252533;61;20361;-59
2022/06/15 04:34:51;0.00;0.00;0.62;0.00;0.00;0.62;3.43;2.17;;;25.60;24.90;;;;;;2252738;61;20456;-59
2022/06/15 04:37:38;0.00;0.00;0.62;0.00;0.00;0.62;3.60;1.90;;;25.50;24.90;;;;;;2253282;61;20393;-58
2022/06/15 04:40:33;0.00;0.00;0.62;0.00;0.00;0.62;2.93;2.10;;;25.50;24.90;;;;;;2252944;61;20398;-59
2022/06/15 04:43:19;0.00;0.00;0.62;0.00;0.00;0.62;3.77;2.63;;;25.50;24.90;;;;;;2256214;61;20409;-57
2022/06/15 04:46:03;0.00;0.00;0.62;0.00;0.00;0.62;3.13;2.60;;;25.50;24.90;;;;;;2253106;61;20771;-57
2022/06/15 04:48:49;0.00;0.00;0.62;0.00;0.00;0.62;3.33;2.13;;;25.50;25.00;;;;;;2256001;61;20442;-58
2022/06/15 04:51:41;0.00;0.00;0.62;0.00;0.00;0.62;3.20;2.20;;;25.50;24.90;;;;;;2253244;61;20413;-59
2022/06/15 04:54:27;0.00;0.00;0.62;0.00;0.00;0.62;3.60;2.17;;;25.50;25.00;;;;;;2252228;61;20918;-56
2022/06/15 04:57:15;0.00;0.00;0.62;0.00;0.00;0.62;3.17;1.93;;;25.50;25.00;;;;;;2255622;61;20501;-59
2022/06/15 05:00:00;0.00;0.00;0.62;0.00;0.00;0.62;3.37;1.80;;;25.50;25.00;;;;;;2251929;61;20413;-59
2022/06/15 05:02:46;0.00;0.00;0.62;0.00;0.00;0.62;2.90;2.10;;;25.50;25.00;;;;;;2252719;61;20408;-58
2022/06/15 05:05:33;0.00;0.00;0.62;0.00;0.00;0.62;3.50;2.40;;;25.40;24.90;;;;;;2253130;61;20389;-56
2022/06/15 05:08:21;0.00;0.00;0.62;0.00;0.00;0.62;2.67;1.53;;;25.40;25.00;;;;;;2252496;61;20374;-55
2022/06/15 05:11:08;0.00;0.00;0.62;0.00;0.00;0.62;2.70;1.93;;;25.40;25.00;;;;;;2253128;61;20378;-57
2022/06/15 05:13:55;0.00;0.00;0.62;0.00;0.00;0.62;4.30;2.60;;;25.40;25.00;;;;;;2257959;61;20496;-56
2022/06/15 05:16:42;0.00;0.00;0.62;0.00;0.00;0.62;2.97;1.97;;;25.40;25.00;;;;;;2259466;61;20445;-59
2022/06/15 05:19:32;0.00;0.00;0.62;0.00;0.00;0.62;2.43;2.00;;;25.40;25.10;;;;;;2258618;61;20385;-57
2022/06/15 05:22:17;0.00;0.00;0.62;0.00;0.00;0.62;5.17;2.53;;;25.40;25.10;;;;;;2257208;61;20419;-58
2022/06/15 05:25:03;0.00;0.00;0.62;0.00;0.00;0.62;3.63;1.87;;;25.40;25.20;;;;;;2256876;61;20396;-57
2022/06/15 05:27:52;0.00;0.00;0.62;0.00;0.00;0.62;2.70;1.80;;;25.40;25.20;;;;;;2257138;61;20373;-56
2022/06/15 05:30:37;0.00;0.00;0.62;0.00;0.00;0.62;2.37;2.17;;;25.40;25.20;;;;;;2256988;61;20921;-59
2022/06/15 05:33:22;0.00;0.00;0.62;0.00;0.00;0.62;3.50;2.07;;;25.40;25.20;;;;;;2256833;61;20357;-57
2022/06/15 05:36:11;0.00;0.00;0.62;0.00;0.00;0.62;3.93;2.20;;;25.40;25.20;;;;;;2257179;61;20364;-58
2022/06/15 05:38:56;0.00;0.00;0.62;0.00;0.00;0.62;2.40;2.03;;;25.40;25.20;;;;;;2256740;61;20453;-59
2022/06/15 05:41:44;0.00;0.00;0.62;0.00;0.00;0.62;3.13;2.40;;;25.40;25.20;;;;;;2257272;61;20361;-60
2022/06/15 05:47:25;0.00;0.00;0.62;0.00;0.00;0.62;4.00;1.97;;;25.40;25.40;;;;;;2256407;61;20381;-58
2022/06/15 05:50:20;0.00;0.00;0.62;0.00;0.00;0.62;4.37;2.40;;;25.40;25.40;;;;;;2257016;61;20389;-56
2022/06/15 05:53:21;0.00;0.00;0.62;0.00;0.00;0.62;3.87;2.53;;;25.40;25.40;;;;;;2256306;61;20356;-61
2022/06/15 05:56:06;0.00;0.00;0.62;0.00;0.00;0.62;3.60;2.20;;;25.40;25.40;;;;;;2259653;61;20881;-56
2022/06/15 05:58:51;0.00;0.00;0.62;0.00;0.00;0.62;3.50;2.57;;;25.40;25.30;;;;;;2260522;61;20346;-63
2022/06/15 06:01:38;0.00;0.00;0.62;0.00;0.00;0.62;2.97;2.20;;;25.40;25.40;;;;;;2257307;61;20344;-62
2022/06/15 06:04:24;0.00;0.00;0.62;0.00;0.00;0.62;3.50;2.23;;;25.50;25.40;;;;;;2290205;58;20519;-61
2022/06/15 06:07:10;0.00;0.00;0.62;0.00;0.00;0.62;4.10;2.70;;;25.40;25.30;;;;;;2253359;61;20384;-59
2022/06/15 06:09:55;0.00;0.00;0.62;0.00;0.00;0.62;4.67;2.30;;;25.50;25.40;;;;;;2257396;61;20380;-60
2022/06/15 06:12:41;0.00;0.00;0.62;0.00;0.00;0.62;4.10;2.23;;;25.50;25.40;;;;;;2258105;61;20361;-63
2022/06/15 06:15:26;0.00;0.00;0.62;0.00;0.00;0.62;3.70;2.27;;;25.50;25.40;;;;;;2255395;61;20389;-64
2022/06/15 06:18:12;0.00;0.00;0.62;0.00;0.00;0.62;4.10;2.40;;;25.50;25.40;;;;;;2255976;61;20370;-62
2022/06/15 06:20:58;0.00;0.00;0.62;0.00;0.00;0.62;9.33;2.60;;;25.40;25.40;;;;;;2256307;61;20449;-58
2022/06/15 06:23:43;0.00;0.00;0.62;0.00;0.00;0.62;6.90;2.07;;;25.50;26.00;;;;;;2254771;61;20366;-55
2022/06/15 06:26:33;0.00;0.00;0.62;0.00;0.00;0.62;3.53;2.40;;;25.50;25.50;;;;;;2255924;61;20361;-59
2022/06/15 06:29:18;0.00;0.00;0.62;0.00;0.00;0.62;5.27;3.23;;;25.50;25.40;;;;;;2255626;61;20745;-62
2022/06/15 06:32:05;0.00;0.00;0.62;0.00;0.00;0.62;2.70;2.00;;;25.50;25.40;;;;;;2256136;61;20407;-57
2022/06/15 06:34:52;0.00;0.00;0.62;0.00;0.00;0.62;4.50;2.00;;;25.50;25.30;;;;;;2259982;61;20977;-63
2022/06/15 06:37:37;0.00;0.00;0.62;0.00;0.00;0.62;3.77;2.13;;;25.50;25.30;;;;;;2259119;61;20400;-56
2022/06/15 06:40:22;0.00;0.00;0.62;0.00;0.00;0.62;3.93;2.23;;;25.50;25.40;;;;;;2259833;61;20427;-58
2022/06/15 06:43:08;0.00;0.00;0.62;0.00;0.00;0.62;5.47;2.73;;;25.50;25.50;;;;;;2260043;61;20365;-57
2022/06/15 06:45:53;0.00;0.00;0.62;0.00;0.00;0.62;3.53;3.10;;;25.50;25.70;;;;;;2258970;61;20364;-58
2022/06/15 06:48:38;0.00;0.00;0.62;0.00;0.00;0.62;4.80;2.00;;;25.50;25.60;;;;;;2261117;61;20419;-58
2022/06/15 06:51:26;0.00;0.00;0.62;0.00;0.00;0.62;5.30;2.57;;;25.60;25.60;;;;;;2260298;61;20381;-57
2022/06/15 06:54:14;0.00;0.00;0.62;0.00;0.00;0.62;3.97;2.20;;;25.50;25.50;;;;;;2256003;61;20385;-57
2022/06/15 06:56:59;0.00;0.00;0.62;0.00;0.00;0.62;3.27;2.00;;;25.50;25.50;;;;;;2256713;61;20469;-60
2022/06/15 06:59:45;0.00;0.00;0.62;0.00;0.00;0.62;3.00;2.30;;;25.60;25.60;;;;;;2255985;61;20512;-64
2022/06/15 07:02:30;0.00;0.00;0.62;0.00;0.00;0.62;5.03;2.40;;;25.50;25.50;;;;;;2256552;61;20374;-59
2022/06/15 07:05:14;0.00;0.00;0.62;0.00;0.00;0.62;4.00;2.30;;;25.50;25.50;;;;;;2257006;61;20371;-61
2022/06/15 07:08:01;0.00;0.00;0.62;0.00;0.00;0.62;6.07;2.50;;;25.50;25.50;;;;;;2254480;61;20379;-59
2022/06/15 07:10:46;0.00;0.00;0.62;0.00;0.00;0.62;7.40;2.40;;;25.50;25.70;;;;;;2261102;61;20790;-58
2022/06/15 07:13:31;0.00;0.00;0.62;0.00;0.00;0.62;5.57;2.57;;;25.50;25.60;;;;;;2260311;61;20443;-60
2022/06/15 07:16:18;0.00;0.00;0.62;0.00;0.00;0.62;4.57;2.20;;;25.60;25.60;;;;;;2260291;61;20372;-59
2022/06/15 07:19:03;0.00;0.00;0.62;0.00;0.00;0.62;4.23;2.67;;;25.50;25.80;;;;;;2260790;61;20397;-62
2022/06/15 07:21:48;0.00;0.00;0.62;0.00;0.00;0.62;7.17;2.60;;;25.60;25.80;;;;;;2260201;61;20377;-62
2022/06/15 07:24:34;0.00;0.00;0.62;0.00;0.00;0.62;3.50;2.30;;;25.60;25.90;;;;;;2260101;61;20437;-58
2022/06/15 07:27:19;0.00;0.00;0.62;0.00;0.00;0.62;3.37;2.30;;;25.60;25.90;;;;;;2257632;61;20804;-55
2022/06/15 07:30:07;0.00;0.00;0.62;0.00;0.00;0.62;4.60;2.50;;;25.60;25.90;;;;;;2260796;61;20384;-57
2022/06/15 07:32:53;0.00;0.00;0.62;0.00;0.00;0.62;4.23;2.40;;;25.50;25.90;;;;;;2260387;61;20986;-55
2022/06/15 07:35:39;0.00;0.00;0.62;0.00;0.00;0.62;3.17;2.27;;;25.60;25.90;;;;;;2422647;45;20477;-53
2022/06/15 07:38:24;0.00;0.00;0.62;0.00;0.00;0.62;3.03;2.17;;;25.60;25.90;;;;;;2257657;61;20392;-66
2022/06/15 07:41:11;0.00;0.00;0.62;0.00;0.00;0.62;5.10;2.30;;;25.60;25.90;;;;;;2261812;61;20431;-61
2022/06/15 07:43:56;0.00;0.00;0.62;0.00;0.00;0.62;5.93;2.23;;;25.60;25.90;;;;;;2257314;61;20372;-54
2022/06/15 07:46:42;0.00;0.00;0.62;0.00;0.00;0.62;5.47;2.10;;;25.60;25.90;;;;;;2260450;61;20364;-57
2022/06/15 07:52:35;0.00;0.00;0.62;0.00;0.00;0.62;3.83;2.27;;;25.70;26.00;;;;;;2260269;61;20769;-56
2022/06/15 07:55:25;0.00;0.00;0.62;0.00;0.00;0.62;7.83;2.47;;;25.70;26.10;;;;;;2256907;61;20424;-57
2022/06/15 07:58:12;0.00;0.00;0.62;0.00;0.00;0.62;3.00;2.17;;;25.70;26.00;;;;;;2260402;61;20387;-54
2022/06/15 08:00:57;0.00;0.00;0.62;0.00;0.00;0.62;3.80;2.30;;;25.70;26.00;;;;;;2259961;61;20791;-52
2022/06/15 08:03:42;0.00;0.00;0.62;0.00;0.00;0.62;3.50;2.20;;;25.70;25.90;;;;;;2260738;61;20399;-52
2022/06/15 08:06:29;0.00;0.00;0.62;0.00;0.00;0.62;4.17;2.30;;;25.70;25.90;;;;;;2257051;61;20536;-50
2022/06/15 08:09:14;0.00;0.00;0.62;0.00;0.00;0.62;3.70;2.27;;;25.70;25.90;;;;;;2260044;61;20377;-54
2022/06/15 08:12:12;0.00;0.00;0.62;0.00;0.00;0.62;3.23;2.20;;;25.70;25.90;;;;;;2256961;61;20377;-50
2022/06/15 08:15:01;0.00;0.00;0.62;0.00;0.00;0.62;5.47;2.87;;;25.70;25.90;;;;;;2255732;61;20440;-53
2022/06/15 08:17:49;0.00;0.00;0.62;0.00;0.00;0.62;4.23;2.43;;;25.70;25.90;;;;;;2256686;61;20374;-56
2022/06/15 08:20:38;0.00;0.00;0.62;0.00;0.00;0.62;3.53;2.47;;;25.70;25.90;;;;;;2256507;61;20806;-49
2022/06/15 08:23:28;0.00;0.00;0.62;0.00;0.00;0.62;4.80;2.43;;;25.70;25.90;;;;;;2255665;61;20378;-53
2022/06/15 08:26:17;0.00;0.00;0.62;0.00;0.00;0.62;3.63;2.00;;;25.70;25.90;;;;;;2256962;61;20405;-53
2022/06/15 08:29:09;0.00;0.00;0.62;0.00;0.00;0.62;3.57;2.10;;;25.70;25.80;;;;;;2256007;61;20505;-55
2022/06/15 08:31:57;0.00;0.00;0.62;0.00;0.00;0.62;3.80;1.90;;;25.70;25.80;;;;;;2256859;61;20889;-50
2022/06/15 08:34:42;0.00;0.00;0.62;0.00;0.00;0.62;6.87;2.17;;;25.80;25.80;;;;;;2256220;61;20467;-52
2022/06/15 08:37:28;0.00;0.00;0.62;0.00;0.00;0.62;4.03;2.13;;;25.70;25.80;;;;;;2255552;61;20385;-52
2022/06/15 08:40:14;0.00;0.00;0.62;0.00;0.00;0.62;3.10;1.80;;;25.70;25.70;;;;;;2256863;61;20472;-49
2022/06/15 08:43:08;0.00;0.00;0.62;0.00;0.00;0.62;3.50;2.10;;;25.80;25.80;;;;;;2255830;61;20398;-53
2022/06/15 08:46:00;0.00;0.00;0.62;0.00;0.00;0.62;3.10;2.20;;;25.80;25.70;;;;;;2256271;61;20369;-53
2022/06/15 08:49:07;0.00;0.00;0.62;0.00;0.00;0.62;4.00;2.80;;;25.80;25.70;;;;;;2256528;61;20370;-53
2022/06/15 08:51:59;0.00;0.00;0.62;0.00;0.00;0.62;4.87;2.07;;;25.80;25.70;;;;;;2255373;61;20370;-52
2022/06/15 08:54:54;0.00;0.00;0.62;0.00;0.00;0.62;5.10;2.60;;;25.80;25.70;;;;;;2256188;61;20417;-51
2022/06/15 08:57:47;0.00;0.00;0.62;0.00;0.00;0.62;3.77;2.17;;;25.80;25.70;;;;;;2256226;61;20413;-54
2022/06/15 09:00:37;0.00;0.00;0.62;0.00;0.00;0.62;2.93;1.87;;;25.80;25.70;;;;;;2257918;61;20868;-55
2022/06/15 09:03:31;0.00;0.00;0.62;0.00;0.00;0.62;3.17;2.33;;;25.80;25.70;;;;;;2256124;61;20444;-51
2022/06/15 09:06:33;0.00;0.00;0.62;0.00;0.00;0.62;2.70;1.90;;;25.80;25.70;;;;;;2255897;61;20393;-52
2022/06/15 09:09:40;0.00;0.00;0.62;0.00;0.00;0.62;3.63;2.03;;;25.80;25.70;;;;;;2256483;61;20370;-48
2022/06/15 09:12:58;0.00;0.00;0.62;0.00;0.00;0.62;2.93;2.30;;;25.80;25.70;;;;;;2255820;61;20556;-54
2022/06/15 09:15:57;0.00;0.00;0.62;0.00;0.00;0.62;4.23;2.47;;;25.80;25.70;;;;;;2291019;61;20451;-56
2022/06/15 09:18:48;0.00;0.00;0.62;0.00;0.00;0.62;2.93;1.80;;;25.80;25.60;;;;;;2259021;61;21164;-55
2022/06/15 09:21:41;0.00;0.00;0.62;0.00;0.00;0.62;3.30;2.20;;;25.80;25.60;;;;;;2258345;61;20364;-52
2022/06/15 09:24:38;0.00;0.00;0.62;0.00;0.00;0.62;3.10;2.00;;;25.80;25.60;;;;;;2259920;61;20365;-53
2022/06/15 09:27:32;0.00;0.00;0.62;0.00;0.00;0.62;4.27;2.23;;;25.80;25.60;;;;;;2259663;61;20402;-56
2022/06/15 09:30:22;0.00;0.00;0.62;0.00;0.00;0.62;2.80;1.83;;;25.90;25.70;;;;;;2259956;61;20486;-54
2022/06/15 09:33:14;0.00;0.00;0.62;0.00;0.00;0.62;2.50;2.00;;;25.90;25.60;;;;;;2257143;61;20364;-53
2022/06/15 09:36:08;0.00;0.00;0.62;0.00;0.00;0.62;3.00;2.07;;;25.90;25.60;;;;;;2259333;61;20933;-56
2022/06/15 09:38:54;0.00;0.00;0.62;0.00;0.00;0.62;6.50;2.00;;;25.90;25.50;;;;;;2260090;61;20368;-54
2022/06/15 09:41:52;0.00;0.00;0.62;0.00;0.00;0.62;3.10;2.10;;;25.90;25.50;;;;;;2260237;61;20407;-56
2022/06/15 09:44:47;0.00;0.00;0.62;0.00;0.00;0.62;5.43;1.77;;;25.90;25.50;;;;;;2259440;61;20433;-53
2022/06/15 09:47:45;0.00;0.00;0.62;0.00;0.00;0.62;6.20;2.47;;;25.90;25.40;;;;;;2260105;61;20417;-57
2022/06/15 09:50:37;0.00;0.00;0.62;0.00;0.00;0.62;3.17;2.27;;;25.90;25.40;;;;;;2259805;61;20972;-54
2022/06/15 09:53:38;0.00;0.00;0.62;0.00;0.00;0.62;2.43;1.70;;;26.00;25.40;;;;;;2259818;61;20775;-56
2022/06/15 09:56:25;0.00;0.00;0.62;0.00;0.00;0.62;4.93;2.50;;;26.00;25.30;;;;;;2260037;61;20396;-53
2022/06/15 09:59:14;0.00;0.00;0.62;0.00;0.00;0.62;2.37;1.87;;;26.00;25.30;;;;;;2259469;61;20897;-54
2022/06/15 10:02:05;0.00;0.00;0.62;0.00;0.00;0.62;2.60;2.03;;;26.00;25.30;;;;;;2260133;61;20360;-53
2022/06/15 10:04:50;0.00;0.00;0.62;0.00;0.00;0.62;2.00;1.80;;;26.00;25.30;;;;;;2264436;40;20381;-55
2022/06/15 10:07:40;0.00;0.00;0.62;0.00;0.00;0.62;3.10;1.97;;;26.00;25.20;;;;;;2259578;61;20922;-52
2022/06/15 10:10:29;0.00;0.00;0.62;0.00;0.00;0.62;3.70;1.97;;;26.00;25.20;;;;;;2250930;61;20378;-51
2022/06/15 10:13:35;0.00;0.00;0.62;0.00;0.00;0.62;4.33;2.17;;;26.00;25.20;;;;;;2250449;61;20758;-52
2022/06/15 10:16:27;0.00;0.00;0.62;0.00;0.00;0.62;3.20;2.27;;;26.00;25.40;;;;;;2251666;61;20526;-53
2022/06/15 10:19:13;0.00;0.00;0.62;0.00;0.00;0.62;5.00;1.70;;;26.10;25.50;;;;;;2252294;61;20371;-59
2022/06/15 10:22:04;0.00;0.00;0.62;0.00;0.00;0.62;2.90;2.30;;;26.10;25.60;;;;;;2253409;61;20454;-59
2022/06/15 10:24:49;0.00;0.00;0.62;0.00;0.00;0.62;4.57;2.00;;;26.10;25.60;;;;;;2252585;61;20367;-54
2022/06/15 10:27:37;0.00;0.00;0.62;0.00;0.00;0.62;3.20;1.70;;;26.10;25.60;;;;;;2251862;61;20362;-53
2022/06/15 10:30:24;0.00;0.00;0.62;0.00;0.00;0.62;2.60;2.00;;;26.20;25.70;;;;;;2252610;61;20370;-52
2022/06/15 10:33:19;0.00;0.00;0.62;0.00;0.00;0.62;3.40;2.23;;;26.20;25.50;;;;;;2251912;61;20371;-54
2022/06/15 10:36:15;0.00;0.00;0.62;0.00;0.00;0.62;3.23;2.27;;;26.20;25.20;;;;;;2251387;61;20433;-54
2022/06/15 10:39:06;0.00;0.00;0.62;0.00;0.00;0.62;3.63;2.10;;;26.20;25.20;;;;;;2252911;61;20444;-52
2022/06/15 10:41:56;0.00;0.00;0.62;0.00;0.00;0.62;3.23;2.00;;;26.20;25.10;;;;;;2255703;61;20409;-53
2022/06/15 10:44:53;0.00;0.00;0.62;0.00;0.00;0.62;3.70;2.07;;;26.30;25.20;;;;;;2252525;61;20346;-59
2022/06/15 10:47:49;0.00;0.00;0.62;0.00;0.00;0.62;5.20;1.77;;;26.30;25.40;;;;;;2253125;61;20365;-55
2022/06/15 10:50:46;0.00;0.00;0.62;0.00;0.00;0.62;2.47;2.10;;;26.30;25.40;;;;;;2255344;61;20921;-53
2022/06/15 10:53:38;0.00;0.00;0.62;0.00;0.00;0.62;5.37;1.73;;;26.30;25.50;;;;;;2256343;61;20393;-55
2022/06/15 11:02:46;0.00;0.00;0.62;0.00;0.00;0.62;3.30;2.00;;;26.40;25.40;;;;;;2255944;61;21120;-56
2022/06/15 11:05:32;0.00;0.00;0.62;0.00;0.00;0.62;4.80;2.17;;;26.50;25.40;;;;;;2255542;61;20496;-51
2022/06/15 11:08:20;0.00;0.00;0.62;0.00;0.00;0.62;2.83;2.10;;;26.50;25.40;;;;;;2256297;61;20393;-54
2022/06/15 11:11:16;0.00;0.00;0.62;0.00;0.00;0.62;3.93;2.50;;;26.50;25.40;;;;;;2255554;61;20400;-60
2022/06/15 11:14:07;0.00;0.00;0.62;0.00;0.00;0.62;3.10;1.80;;;26.60;25.40;;;;;;2255644;61;20881;-57
2022/06/15 11:19:58;0.00;0.00;0.62;0.00;0.00;0.62;3.13;2.10;;;26.60;25.40;;;;;;2255081;61;20404;-56
2022/06/15 11:22:43;0.00;0.00;0.62;0.00;0.00;0.62;5.73;2.60;;;26.60;25.40;;;;;;2256358;61;20366;-56
2022/06/15 11:25:45;0.00;0.00;0.62;0.00;0.00;0.62;3.17;2.27;;;26.60;25.40;;;;;;2255165;61;20808;-50